Time;durP1;ratioP1;P1;durP2;ratioP2;P2;SDS_P1;SDS_P2;PMS_P1;PMS_P2;Temp;Humidity;BMP_temperature;BMP_pressure;BME280_temperature;BME280_humidity;BME280_pressure;Samples;Min_cycle;Max_cycle;Signal;HPM_P1;HPM_P2
2021/04/12 00:02:30;;;;;;;;;;;10.80;99.90;;;10.11;100.00;101071.41;5072233;28;19950;-62
2021/04/12 00:05:10;;;;;;;;;;;10.60;99.90;;;10.19;100.00;101064.63;5071485;28;19925;-62
2021/04/12 00:07:40;;;;;;;;;;;10.60;99.90;;;10.30;100.00;101066.19;5072986;28;20439;-63
2021/04/12 00:10:12;;;;;;;;;;;10.70;99.90;;;10.37;100.00;101055.84;5076040;28;19924;-63
2021/04/12 00:12:43;;;;;;;;;;;10.70;99.90;;;10.32;100.00;101055.88;5075908;28;19932;-63
2021/04/12 00:15:19;;;;;;;;;;;10.70;99.90;;;10.30;100.00;101058.84;5075412;28;20385;-63
2021/04/12 00:17:49;;;;;;;;;;;10.70;99.90;;;10.27;100.00;101064.03;5075332;28;20022;-63
2021/04/12 00:20:25;;;;;;;;;;;10.70;99.90;;;10.38;100.00;101055.56;5075861;28;19929;-63
2021/04/12 00:22:54;;;;;;;;;;;10.80;99.90;;;10.43;100.00;101057.41;5075926;28;20271;-63
2021/04/12 00:25:26;;;;;;;;;;;10.90;99.90;;;10.49;100.00;101058.97;5075552;28;19982;-63
2021/04/12 00:27:56;;;;;;;;;;;10.90;99.90;;;10.48;100.00;101070.09;5075341;28;19924;-63
2021/04/12 00:30:27;;;;;;;;;;;10.90;99.90;;;10.39;100.00;101069.91;5075685;28;19928;-63
2021/04/12 00:32:58;;;;;;;;;;;10.80;99.90;;;10.34;100.00;101078.03;5075631;28;20298;-62
2021/04/12 00:35:32;;;;;;;;;;;10.70;99.90;;;10.31;100.00;101071.28;5075369;28;20266;-63
2021/04/12 00:38:03;;;;;;;;;;;10.70;99.90;;;10.06;100.00;101066.03;5075037;28;19929;-62
2021/04/12 00:40:36;;;;;;;;;;;10.60;99.90;;;9.99;100.00;101065.56;5066140;28;20366;-62
2021/04/12 00:43:18;;;;;;;;;;;10.50;99.90;;;10.07;100.00;101053.31;5055485;28;19924;-62
2021/04/12 00:45:59;;;;;;;;;;;10.60;99.90;;;10.13;100.00;101061.16;5055321;28;19982;-63
2021/04/12 00:48:52;;;;;;;;;;;10.60;99.90;;;10.17;100.00;101053.28;5054857;28;19925;-63
2021/04/12 00:51:32;;;;;;;;;;;10.60;99.90;;;10.14;100.00;101056.56;5052952;28;19939;-63
2021/04/12 00:54:22;;;;;;;;;;;10.60;99.90;;;10.18;100.00;101058.41;5054999;28;19980;-62
2021/04/12 00:56:53;;;;;;;;;;;10.60;99.90;;;10.29;100.00;101048.34;5055088;28;19925;-63
2021/04/12 00:59:27;;;;;;;;;;;10.70;99.90;;;10.36;100.00;101040.72;5054171;28;19929;-63
2021/04/12 01:02:00;;;;;;;;;;;10.80;99.90;;;10.40;100.00;101041.75;5055335;28;19979;-62
2021/04/12 01:04:40;;;;;;;;;;;10.80;99.90;;;10.41;100.00;101038.78;5054472;28;19932;-63
2021/04/12 01:07:43;;;;;;;;;;;10.80;99.90;;;10.53;100.00;101035.72;5055012;28;19960;-63
2021/04/12 01:10:35;;;;;;;;;;;10.90;99.90;;;10.61;100.00;101032.38;5054824;28;19925;-63
2021/04/12 01:13:19;;;;;;;;;;;11.10;99.90;;;10.52;100.00;101028.69;5054896;28;20298;-62
2021/04/12 01:16:18;;;;;;;;;;;11.00;99.90;;;10.47;100.00;101028.72;5054255;28;20340;-63
2021/04/12 01:19:06;;;;;;;;;;;10.90;99.90;;;10.43;100.00;101014.16;5053170;28;19986;-62
2021/04/12 01:22:10;;;;;;;;;;;10.60;99.90;;;10.32;100.00;101012.63;5054787;28;19925;-63
2021/04/12 01:25:17;;;;;;;;;;;10.80;99.90;;;10.20;100.00;101015.72;5054271;28;20189;-62
2021/04/12 01:28:18;;;;;;;;;;;10.70;99.90;;;10.29;100.00;101003.22;5012643;28;19928;-62
2021/04/12 01:31:26;;;;;;;;;;;10.80;99.90;;;10.40;100.00;101002.03;5054744;28;19929;-62
2021/04/12 01:34:20;;;;;;;;;;;10.90;99.90;;;10.49;100.00;100999.50;5000190;28;19928;-63
2021/04/12 01:36:54;;;;;;;;;;;11.00;99.90;;;10.30;100.00;101004.03;5074740;28;19924;-63
2021/04/12 01:39:45;;;;;;;;;;;10.90;99.90;;;10.28;100.00;101003.47;5073600;28;19998;-63
2021/04/12 01:42:28;;;;;;;;;;;10.80;99.90;;;10.43;100.00;101013.38;5074485;28;19932;-63
2021/04/12 01:45:04;;;;;;;;;;;10.90;99.90;;;10.53;100.00;101015.97;5073814;28;19931;-62
2021/04/12 01:47:41;;;;;;;;;;;11.00;99.90;;;10.58;100.00;101011.31;5074043;28;19928;-63
2021/04/12 01:50:22;;;;;;;;;;;11.00;99.90;;;10.43;100.00;101009.56;5073969;28;19932;-62
2021/04/12 01:53:28;;;;;;;;;;;11.00;99.90;;;10.31;100.00;101008.31;5074262;28;19931;-63
2021/04/12 01:56:39;;;;;;;;;;;10.90;99.90;;;10.23;100.00;101003.53;5073589;28;19967;-63
2021/04/12 01:59:23;;;;;;;;;;;10.80;99.90;;;10.16;100.00;101008.44;5056998;28;19935;-62
2021/04/12 02:02:10;;;;;;;;;;;10.70;99.90;;;10.16;100.00;101008.44;5074054;28;19931;-63
2021/04/12 02:04:55;;;;;;;;;;;10.70;99.90;;;10.18;100.00;101011.69;5073342;28;19928;-63
2021/04/12 02:07:51;;;;;;;;;;;10.70;99.90;;;10.16;100.00;101006.56;5072800;28;19933;-63
2021/04/12 02:10:30;;;;;;;;;;;10.70;99.90;;;10.12;100.00;101008.16;5067481;28;19925;-62
2021/04/12 02:13:04;;;;;;;;;;;10.70;99.90;;;10.10;100.00;100993.31;5074132;28;19931;-63
2021/04/12 02:15:47;;;;;;;;;;;10.70;99.90;;;10.15;100.00;101004.94;5072838;28;19931;-62
2021/04/12 02:18:37;;;;;;;;;;;10.70;99.90;;;10.24;100.00;101005.94;5072983;28;19940;-63
2021/04/12 02:21:09;;;;;;;;;;;10.80;99.90;;;10.21;100.00;101000.31;5073652;28;20316;-63
2021/04/12 02:23:49;;;;;;;;;;;10.80;99.90;;;10.26;100.00;101009.19;5073403;28;19955;-62
2021/04/12 02:26:28;;;;;;;;;;;10.80;99.90;;;10.24;100.00;101003.22;5073391;28;20020;-62
2021/04/12 02:29:19;;;;;;;;;;;10.70;99.90;;;10.29;100.00;101002.41;5072103;28;19924;-63
2021/04/12 02:31:53;;;;;;;;;;;10.70;99.90;;;10.37;100.00;101004.47;5073300;28;19955;-62
2021/04/12 02:34:26;;;;;;;;;;;10.80;99.90;;;10.33;100.00;101003.44;5073040;28;19940;-63
2021/04/12 02:37:08;;;;;;;;;;;10.80;99.90;;;10.22;100.00;100986.50;5073398;28;19924;-63
2021/04/12 02:39:50;;;;;;;;;;;10.70;99.90;;;10.17;100.00;100989.25;5072475;28;19935;-62
2021/04/12 02:42:24;;;;;;;;;;;10.60;99.90;;;10.09;100.00;100997.13;5073335;28;19932;-62
2021/04/12 02:45:01;;;;;;;;;;;10.50;99.90;;;10.05;100.00;100990.66;5072452;28;19928;-63
2021/04/12 02:47:44;;;;;;;;;;;10.50;99.90;;;9.97;100.00;100993.97;5072742;28;19978;-63
2021/04/12 02:50:27;;;;;;;;;;;10.40;99.90;;;9.96;100.00;100995.06;5072829;28;19972;-62
2021/04/12 02:53:04;;;;;;;;;;;10.40;99.90;;;9.95;100.00;100982.63;5073055;28;19978;-62
2021/04/12 02:55:58;;;;;;;;;;;10.30;99.90;;;9.76;100.00;100986.00;5072454;28;19978;-63
2021/04/12 02:59:19;;;;;;;;;;;10.20;99.90;;;9.67;100.00;100984.97;5072163;28;19924;-63
2021/04/12 03:02:13;;;;;;;;;;;10.10;99.90;;;9.64;100.00;100985.53;5072761;28;19955;-63
2021/04/12 03:05:00;;;;;;;;;;;10.10;99.90;;;9.50;100.00;100984.53;5072590;28;20022;-63
2021/04/12 03:08:09;;;;;;;;;;;10.00;99.90;;;9.38;100.00;100984.06;5072337;28;19931;-63
2021/04/12 03:11:00;;;;;;;;;;;9.80;99.90;;;9.36;100.00;100982.75;5070262;28;19924;-62
2021/04/12 03:13:56;;;;;;;;;;;9.80;99.90;;;9.36;100.00;100980.84;5072727;28;19929;-62
2021/04/12 03:17:03;;;;;;;;;;;9.80;99.90;;;9.15;100.00;100971.25;5072426;28;19931;-63
2021/04/12 03:19:43;;;;;;;;;;;9.70;99.90;;;8.93;100.00;100970.78;5071656;28;19931;-63
2021/04/12 03:22:35;;;;;;;;;;;9.50;99.90;;;8.90;100.00;100971.31;5072110;28;19931;-62
2021/04/12 03:25:19;;;;;;;;;;;9.50;99.90;;;8.95;100.00;100972.09;5072043;28;19936;-63
2021/04/12 03:28:30;;;;;;;;;;;9.50;99.90;;;8.99;100.00;100977.75;5071935;28;19954;-62
2021/04/12 03:31:13;;;;;;;;;;;9.60;99.90;;;8.94;100.00;100969.66;5010696;28;19932;-63
2021/04/12 03:33:53;;;;;;;;;;;9.50;99.90;;;9.06;100.00;100978.28;5010708;28;20425;-62
2021/04/12 03:36:26;;;;;;;;;;;9.60;99.90;;;9.07;100.00;100972.59;5054672;28;19932;-62
2021/04/12 03:39:03;;;;;;;;;;;9.60;99.90;;;9.08;100.00;100968.84;5071812;28;19928;-63
2021/04/12 03:41:55;;;;;;;;;;;9.70;99.90;;;9.25;100.00;100968.47;5072201;28;19925;-63
2021/04/12 03:45:01;;;;;;;;;;;9.80;99.90;;;9.37;100.00;100968.94;5071814;28;19924;-63
2021/04/12 03:47:52;;;;;;;;;;;9.90;99.90;;;9.51;100.00;100959.19;5030416;28;19924;-63
2021/04/12 03:50:30;;;;;;;;;;;10.00;99.90;;;9.58;100.00;100964.25;5071764;28;19924;-63
2021/04/12 03:53:25;;;;;;;;;;;10.10;99.90;;;9.71;100.00;100967.13;5071737;28;19932;-62
2021/04/12 03:56:31;;;;;;;;;;;10.20;99.90;;;9.77;100.00;100952.50;5071044;28;19929;-62
2021/04/12 03:59:08;;;;;;;;;;;10.30;99.90;;;9.68;100.00;100961.50;5008966;28;20290;-62
2021/04/12 04:01:47;;;;;;;;;;;10.30;99.90;;;9.72;100.00;100962.56;5061337;28;20377;-62
2021/04/12 04:04:30;;;;;;;;;;;10.20;99.90;;;9.75;100.00;100957.41;5071449;28;19925;-62
2021/04/12 04:07:23;;;;;;;;;;;10.30;99.90;;;9.84;100.00;100960.31;5071215;28;20031;-62
2021/04/12 04:09:57;;;;;;;;;;;10.30;99.90;;;9.92;100.00;100961.59;5071001;28;19929;-62
2021/04/12 04:12:41;;;;;;;;;;;10.40;99.90;;;9.84;100.00;100961.13;5071258;28;20315;-62
2021/04/12 04:15:18;;;;;;;;;;;10.40;99.90;;;9.92;100.00;100970.50;5057749;28;20043;-63
2021/04/12 04:18:16;;;;;;;;;;;10.40;99.90;;;9.93;100.00;100968.59;5050657;28;19978;-63
2021/04/12 04:21:09;;;;;;;;;;;10.40;99.90;;;10.04;100.00;100962.84;5051059;28;20036;-62
2021/04/12 04:24:12;;;;;;;;;;;10.50;99.90;;;10.09;100.00;100954.69;5051121;28;20285;-62
2021/04/12 04:27:07;;;;;;;;;;;10.60;99.90;;;10.04;100.00;100956.63;5044469;28;19932;-62
2021/04/12 04:30:07;;;;;;;;;;;10.60;99.90;;;10.08;100.00;100958.50;5050311;28;20393;-62
2021/04/12 04:33:02;;;;;;;;;;;10.60;99.90;;;10.06;100.00;100955.25;5044837;28;19929;-62
2021/04/12 04:35:51;;;;;;;;;;;10.60;99.90;;;10.12;100.00;100946.00;5050579;28;19995;-62
2021/04/12 04:38:49;;;;;;;;;;;10.70;99.90;;;10.09;100.00;100943.88;5050372;28;19932;-63
2021/04/12 04:41:26;;;;;;;;;;;10.60;99.90;;;10.09;100.00;100945.78;5050859;28;19967;-63
2021/04/12 04:44:08;;;;;;;;;;;10.60;99.90;;;10.16;100.00;100949.00;5050833;28;19929;-63
2021/04/12 04:46:50;;;;;;;;;;;10.70;99.90;;;10.22;100.00;100939.75;5050482;28;19936;-63
2021/04/12 04:52:29;;;;;;;;;;;10.80;99.90;;;10.34;100.00;100937.47;5090537;28;20361;-63
2021/04/12 04:55:15;;;;;;;;;;;10.90;99.90;;;10.46;100.00;100934.41;5090183;28;20293;-63
2021/04/12 04:58:01;;;;;;;;;;;11.00;99.90;;;10.43;100.00;100936.56;5089510;28;19924;-63
2021/04/12 05:00:48;;;;;;;;;;;11.00;99.90;;;10.43;100.00;100929.56;5107977;28;20370;-63
2021/04/12 05:03:56;;;;;;;;;;;11.00;99.90;;;10.47;100.00;100934.09;5110306;28;19931;-63
2021/04/12 05:06:50;;;;;;;;;;;11.00;99.90;;;10.49;100.00;100933.84;5109941;28;19951;-63
2021/04/12 05:09:44;;;;;;;;;;;11.00;99.90;;;10.50;100.00;100928.13;5051463;28;19929;-63
2021/04/12 05:12:46;;;;;;;;;;;11.00;99.90;;;10.49;100.00;100921.09;5089974;28;20239;-63
2021/04/12 05:15:36;;;;;;;;;;;11.00;99.90;;;10.56;100.00;100932.38;5089261;28;19924;-63
2021/04/12 05:18:18;;;;;;;;;;;11.10;99.90;;;10.61;100.00;100932.31;5088795;28;19928;-63
2021/04/12 05:21:04;;;;;;;;;;;11.10;99.90;;;10.65;100.00;100932.56;5089895;28;20082;-63
2021/04/12 05:23:54;;;;;;;;;;;11.20;99.90;;;10.66;100.00;100935.00;5090252;28;20364;-62
2021/04/12 05:26:32;;;;;;;;;;;11.20;99.90;;;10.70;100.00;100944.13;5089323;28;19989;-62
2021/04/12 05:29:35;;;;;;;;;;;11.20;99.90;;;10.64;100.00;100939.88;5088557;28;20023;-63
2021/04/12 05:32:29;;;;;;;;;;;11.20;99.90;;;10.70;100.00;100938.72;5089333;28;19931;-63
2021/04/12 05:35:04;;;;;;;;;;;11.20;99.90;;;10.67;100.00;100936.59;5065922;28;19928;-64
2021/04/12 05:37:53;;;;;;;;;;;11.20;99.90;;;10.67;100.00;100935.81;5088617;28;19924;-64
2021/04/12 05:40:51;;;;;;;;;;;11.20;99.90;;;10.60;100.00;100940.75;5089088;28;19978;-64
2021/04/12 05:43:31;;;;;;;;;;;11.10;99.90;;;10.62;100.00;100942.06;5072372;28;19924;-62
2021/04/12 05:46:40;;;;;;;;;;;11.10;99.90;;;10.58;100.00;100941.00;5088871;28;19924;-63
2021/04/12 05:49:21;;;;;;;;;;;11.10;99.90;;;10.58;100.00;100945.63;5038530;28;19935;-63
2021/04/12 05:52:00;;;;;;;;;;;11.10;99.90;;;10.60;100.00;100940.75;5088867;28;19989;-62
2021/04/12 05:54:58;;;;;;;;;;;11.10;99.90;;;10.70;100.00;100940.63;5088627;28;19928;-63
2021/04/12 05:57:46;;;;;;;;;;;11.20;99.90;;;10.78;100.00;100946.22;5085976;28;19935;-63
2021/04/12 06:00:27;;;;;;;;;;;11.30;99.90;;;10.83;100.00;100940.75;5090314;28;19982;-63
2021/04/12 06:03:07;;;;;;;;;;;11.40;99.90;;;10.84;100.00;100936.94;5100263;28;20023;-63
2021/04/12 06:05:39;;;;;;;;;;;11.40;99.90;;;10.91;100.00;100939.31;5095030;28;19935;-63
2021/04/12 06:08:37;;;;;;;;;;;11.40;99.90;;;10.94;100.00;100941.44;5094751;28;19977;-63
2021/04/12 06:11:41;;;;;;;;;;;11.50;99.90;;;10.98;100.00;100945.97;5092336;28;19924;-62
2021/04/12 06:14:34;;;;;;;;;;;11.50;99.90;;;11.09;100.00;100937.72;5092025;28;19928;-64
2021/04/12 06:17:38;;;;;;;;;;;11.60;99.90;;;11.20;100.00;100944.63;5095334;28;20376;-62
2021/04/12 06:20:38;;;;;;;;;;;11.70;99.90;;;11.47;100.00;100937.47;5095179;28;19928;-64
2021/04/12 06:23:17;;;;;;;;;;;12.00;99.90;;;12.07;100.00;100941.19;5080096;28;19928;-62
2021/04/12 06:26:11;;;;;;;;;;;12.80;99.90;;;12.91;96.19;100939.09;5095088;28;19983;-63
2021/04/12 06:28:54;;;;;;;;;;;13.70;99.90;;;14.04;88.62;100939.81;5094084;28;19954;-63
2021/04/12 06:31:56;;;;;;;;;;;13.70;99.90;;;14.88;82.29;100939.81;5095064;28;19924;-63
2021/04/12 06:34:52;;;;;;;;;;;14.60;99.90;;;14.49;81.74;100947.97;5094791;28;19939;-63
2021/04/12 06:37:37;;;;;;;;;;;14.50;99.90;;;13.87;84.69;100955.22;5092260;28;19931;-63
2021/04/12 06:40:47;;;;;;;;;;;14.00;99.90;;;13.39;87.68;100958.47;5094556;28;19928;-65
2021/04/12 06:43:37;;;;;;;;;;;13.70;99.90;;;12.97;91.37;100975.09;5094879;28;19924;-65
2021/04/12 06:46:50;;;;;;;;;;;13.40;99.90;;;12.61;92.57;100985.81;5094043;28;20282;-64
2021/04/12 06:50:06;;;;;;;;;;;13.20;99.90;;;12.10;95.32;100993.19;5093519;28;20270;-64
2021/04/12 06:53:07;;;;;;;;;;;12.80;99.90;;;11.88;97.59;101000.03;5074507;28;19925;-65
2021/04/12 06:56:01;;;;;;;;;;;12.50;99.90;;;11.93;99.68;101001.84;5073267;28;19928;-64
2021/04/12 06:59:01;;;;;;;;;;;12.50;99.90;;;11.98;99.65;101002.56;5073284;28;19928;-62
2021/04/12 07:01:58;;;;;;;;;;;12.50;99.90;;;11.96;99.83;100995.84;5074146;28;19986;-65
2021/04/12 07:05:15;;;;;;;;;;;12.50;99.90;;;11.98;100.00;101001.75;5074037;28;20389;-64
2021/04/12 07:08:18;;;;;;;;;;;12.50;99.90;;;12.03;100.00;101007.94;5039188;28;19925;-64
2021/04/12 07:11:31;;;;;;;;;;;12.50;99.90;;;12.09;100.00;101005.13;5074184;28;20281;-62
2021/04/12 07:14:26;;;;;;;;;;;12.50;99.90;;;12.17;100.00;101002.56;5073098;28;19928;-62
2021/04/12 07:17:13;;;;;;;;;;;12.60;99.90;;;12.25;100.00;101001.88;5070749;28;20400;-62
2021/04/12 07:20:05;;;;;;;;;;;12.70;99.90;;;12.35;100.00;101007.13;5073101;28;19925;-64
2021/04/12 07:23:01;;;;;;;;;;;12.80;99.90;;;12.42;100.00;101012.19;5073998;28;20010;-63
2021/04/12 07:26:05;;;;;;;;;;;12.90;99.90;;;12.38;100.00;101016.56;5073428;28;19924;-63
2021/04/12 07:29:19;;;;;;;;;;;12.90;99.90;;;12.55;100.00;101022.28;5072657;28;19929;-63
2021/04/12 07:32:16;;;;;;;;;;;13.00;99.90;;;12.64;100.00;101020.47;5053325;28;19935;-63
2021/04/12 07:35:08;;;;;;;;;;;13.10;99.90;;;12.76;100.00;101033.56;5066362;28;19924;-64
2021/04/12 07:38:03;;;;;;;;;;;13.20;99.90;;;12.81;100.00;101034.28;5073050;28;19932;-64
2021/04/12 07:41:16;;;;;;;;;;;13.20;99.90;;;12.92;100.00;101032.97;5073659;28;19924;-63
2021/04/12 07:44:16;;;;;;;;;;;13.30;99.90;;;12.99;100.00;101041.53;5073403;28;20381;-63
2021/04/12 07:47:30;;;;;;;;;;;13.50;99.90;;;13.09;100.00;101037.84;5072545;28;19981;-63
2021/04/12 07:50:43;;;;;;;;;;;13.50;99.90;;;13.28;100.00;101040.47;5073734;28;19936;-62
2021/04/12 07:54:11;;;;;;;;;;;13.70;99.90;;;13.39;100.00;101044.59;5093877;28;19924;-62
2021/04/12 07:57:10;;;;;;;;;;;13.80;99.90;;;13.42;99.75;101039.38;5093129;28;19931;-63
2021/04/12 08:00:19;;;;;;;;;;;13.90;99.90;;;13.63;99.54;101037.81;5051744;28;20002;-63
2021/04/12 08:03:24;;;;;;;;;;;14.10;99.90;;;13.83;98.73;101035.78;5045710;28;20262;-63
2021/04/12 08:06:20;;;;;;;;;;;14.40;99.90;;;14.07;97.76;101039.03;5092782;28;19924;-63
2021/04/12 08:09:06;;;;;;;;;;;14.40;99.90;;;14.30;95.16;101034.41;5048687;28;19920;-63
2021/04/12 08:12:10;;;;;;;;;;;14.70;99.90;;;14.46;96.48;101041.91;5093505;28;19985;-62
2021/04/12 08:15:26;;;;;;;;;;;15.20;99.90;;;15.02;94.17;101048.63;5042435;28;20266;-63
2021/04/12 08:18:08;;;;;;;;;;;15.30;99.90;;;15.49;88.31;101038.88;5092417;28;20027;-63
2021/04/12 08:21:14;;;;;;;;;;;15.70;99.90;;;15.68;86.03;101045.69;5093062;28;19925;-63
2021/04/12 08:24:25;;;;;;;;;;;15.90;99.90;;;16.04;86.81;101050.84;5093454;28;19928;-65
2021/04/12 08:27:25;;;;;;;;;;;16.30;99.90;;;16.13;81.22;101054.38;5092684;28;19924;-65
2021/04/12 08:30:30;;;;;;;;;;;16.40;99.90;;;16.16;83.52;101053.72;5092843;28;20375;-62
2021/04/12 08:34:07;;;;;;;;;;;16.40;99.90;;;16.13;81.22;101054.38;5093009;28;19978;-62
2021/04/12 08:37:07;;;;;;;;;;;16.40;99.90;;;16.09;80.66;101067.03;5092841;28;19977;-65
2021/04/12 08:40:02;;;;;;;;;;;16.70;99.90;;;16.63;83.96;101062.03;5091830;28;19931;-63
2021/04/12 08:43:08;;;;;;;;;;;16.90;99.90;;;16.89;77.78;101065.53;5093318;28;19950;-65
2021/04/12 08:46:13;;;;;;;;;;;17.10;99.90;;;17.09;75.74;101062.09;5092054;28;19924;-63
2021/04/12 08:48:54;;;;;;;;;;;17.30;99.90;;;17.12;73.91;101061.44;5091933;28;20369;-62
2021/04/12 08:51:51;;;;;;;;;;;17.30;99.90;;;17.41;73.67;101060.69;5092599;28;20958;-63
2021/04/12 08:54:48;;;;;;;;;;;17.60;99.90;;;17.69;72.84;101058.28;5092453;28;19924;-65
2021/04/12 08:57:50;;;;;;;;;;;17.90;99.90;;;17.42;71.41;101067.72;5092739;28;20023;-63
2021/04/12 09:00:54;;;;;;;;;;;18.00;99.90;;;17.68;75.13;101073.91;5092621;28;19928;-65
2021/04/12 09:03:52;;;;;;;;;;;18.00;99.90;;;17.83;71.28;101075.25;5092607;28;20350;-63
2021/04/12 09:06:40;;;;;;;;;;;18.20;99.90;;;17.61;71.10;101078.28;5092475;28;19947;-62
2021/04/12 09:09:43;;;;;;;;;;;18.20;99.90;;;17.66;72.31;101084.34;5092273;28;19928;-63
2021/04/12 09:12:40;;;;;;;;;;;18.20;99.90;;;17.95;74.58;101086.28;5092695;28;19947;-64
2021/04/12 09:15:27;;;;;;;;;;;18.40;99.90;;;18.20;73.70;101095.44;5092429;28;19924;-64
2021/04/12 09:18:38;;;;;;;;;;;18.70;99.90;;;18.31;72.55;101097.44;5091951;28;19931;-64
2021/04/12 09:21:27;;;;;;;;;;;18.90;99.90;;;18.54;75.10;101109.66;5093340;28;20032;-64
2021/04/12 09:24:23;;;;;;;;;;;19.10;99.90;;;18.74;73.65;101104.47;5092573;28;19932;-64
2021/04/12 09:27:26;;;;;;;;;;;19.20;99.90;;;18.80;73.73;101108.59;5092994;28;20384;-64
2021/04/12 09:30:11;;;;;;;;;;;19.40;99.90;;;18.81;74.19;101110.22;5092406;28;20299;-64
2021/04/12 09:33:16;;;;;;;;;;;19.40;99.90;;;18.76;70.92;101110.41;5091843;28;19924;-65
2021/04/12 09:36:08;;;;;;;;;;;19.40;99.90;;;18.77;71.65;101112.84;5068653;28;19924;-64
2021/04/12 09:39:01;;;;;;;;;;;19.30;99.90;;;18.76;71.98;101115.88;5094189;28;20399;-64
2021/04/12 09:55:39;;;;;;;;;;;19.60;99.90;;;18.34;73.26;101135.09;5069139;28;19974;-64
2021/04/12 09:58:40;;;;;;;;;;;19.00;99.90;;;18.29;73.61;101131.75;5069556;28;20371;-65
2021/04/12 10:01:20;;;;;;;;;;;18.90;99.90;;;18.33;74.68;101140.91;5069787;28;19925;-63
2021/04/12 10:04:31;;;;;;;;;;;19.00;99.90;;;18.34;70.43;101147.97;5068722;28;20382;-63
2021/04/12 10:07:17;;;;;;;;;;;19.00;99.90;;;18.20;74.48;101142.78;4995931;28;19977;-63
2021/04/12 10:09:59;;;;;;;;;;;18.70;99.90;;;18.22;74.34;101143.22;5069647;28;19924;-63
2021/04/12 10:25:05;;;;;;;;;;;19.00;99.90;;;19.73;66.46;101127.84;4951227;28;19914;-63
2021/04/12 10:27:40;;;;;;;;;;;20.10;99.90;;;19.63;69.62;101120.09;4951736;28;19934;-63
2021/04/12 10:30:11;;;;;;;;;;;20.10;99.90;;;19.46;67.03;101121.09;4951719;28;19927;-62
2021/04/12 10:32:43;;;;;;;;;;;20.20;99.90;;;18.90;68.81;101117.22;4951757;28;19982;-63
2021/04/12 10:35:15;;;;;;;;;;;19.80;99.90;;;19.08;71.82;101109.59;4950821;28;20037;-65
2021/04/12 10:37:47;;;;;;;;;;;19.80;99.90;;;19.30;68.62;101108.38;4951593;28;20374;-62
2021/04/12 10:40:22;;;;;;;;;;;19.90;99.90;;;19.39;69.42;101107.19;4951594;28;20045;-64
2021/04/12 10:42:56;;;;;;;;;;;20.00;99.90;;;19.66;67.83;101102.13;4951633;28;19982;-64
2021/04/12 10:45:26;;;;;;;;;;;20.00;99.90;;;19.84;66.19;101109.78;4949627;28;19927;-64
2021/04/12 10:48:00;;;;;;;;;;;20.30;99.90;;;19.67;66.00;101107.28;4951558;28;20382;-64
2021/04/12 10:50:35;;;;;;;;;;;20.10;99.90;;;19.70;65.99;101101.09;4951405;28;19931;-64
2021/04/12 10:53:44;;;;;;;;;;;20.10;99.90;;;19.95;65.78;101102.69;4951280;28;19927;-64
2021/04/12 10:56:16;;;;;;;;;;;20.30;99.90;;;20.42;64.53;101102.13;4946358;28;20287;-64
2021/04/12 10:59:18;;;;;;;;;;;20.80;99.90;;;20.48;60.62;101101.53;4951250;28;19927;-64
2021/04/12 11:01:48;;;;;;;;;;;20.90;99.90;;;20.58;62.66;101103.78;4932519;28;19926;-64
2021/04/12 11:04:43;;;;;;;;;;;21.00;99.90;;;20.56;62.98;101117.06;4950289;28;19927;-64
2021/04/12 11:07:14;;;;;;;;;;;;;;;20.75;62.67;101112.88;4950983;28;19930;-64
2021/04/12 11:09:57;;;;;;;;;;;21.30;99.90;;;20.98;61.66;101111.94;4951051;28;19927;-64
2021/04/12 11:12:46;;;;;;;;;;;21.50;99.90;;;21.31;61.28;101108.88;4931055;29;19927;-64
2021/04/12 11:15:42;;;;;;;;;;;21.80;99.90;;;21.43;61.47;101121.78;4931150;29;19937;-64
2021/04/12 11:18:21;;;;;;;;;;;22.10;99.90;;;21.49;62.83;101110.13;4916121;29;19935;-64
2021/04/12 11:20:52;;;;;;;;;;;22.20;99.90;;;21.24;61.53;101109.53;4931873;29;20283;-64
2021/04/12 11:23:21;;;;;;;;;;;22.10;99.90;;;20.83;62.04;101109.94;4931157;29;19970;-64
2021/04/12 11:25:52;;;;;;;;;;;21.70;99.90;;;20.45;63.43;101109.69;4919364;29;19934;-64
2021/04/12 11:28:44;;;;;;;;;;;21.30;99.90;;;20.40;65.29;101105.22;4919028;29;20639;-63
2021/04/12 11:31:34;;;;;;;;;;;21.10;99.90;;;20.32;63.45;101108.91;4918973;29;19982;-64
2021/04/12 11:34:11;;;;;;;;;;;21.00;99.90;;;20.29;63.84;101112.34;4910642;29;20401;-64
2021/04/12 11:36:50;;;;;;;;;;;20.90;99.90;;;20.17;63.99;101104.94;4918812;29;19931;-64
2021/04/12 11:39:20;;;;;;;;;;;20.80;99.90;;;20.33;62.08;101118.75;4919047;29;19982;-64
2021/04/12 11:41:52;;;;;;;;;;;20.90;99.90;;;20.34;63.92;101112.09;4918748;29;19927;-64
2021/04/12 11:44:24;;;;;;;;;;;20.90;99.90;;;20.29;63.40;101109.59;4918018;29;19998;-64
2021/04/12 11:47:20;;;;;;;;;;;20.90;99.90;;;20.50;65.07;101107.47;4918485;29;19927;-64
2021/04/12 11:50:05;;;;;;;;;;;21.00;99.90;;;20.53;62.45;101106.78;4916380;29;19927;-64
2021/04/12 11:52:38;;;;;;;;;;;21.10;99.90;;;20.35;63.35;101099.16;4918523;29;19934;-64
2021/04/12 11:55:14;;;;;;;;;;;21.00;99.90;;;20.14;63.45;101111.09;4917250;29;19983;-64
2021/04/12 11:57:49;;;;;;;;;;;20.80;99.90;;;19.99;65.11;101106.34;4918464;29;20011;-64
2021/04/12 12:00:21;;;;;;;;;;;20.70;99.90;;;20.06;65.56;101109.28;4918489;29;20089;-64
2021/04/12 12:03:00;;;;;;;;;;;20.70;99.90;;;20.31;64.21;101110.06;4924649;29;19927;-64
2021/04/12 12:05:32;;;;;;;;;;;20.90;99.90;;;20.34;62.93;101112.09;4935920;29;19931;-64
2021/04/12 12:08:00;;;;;;;;;;;20.90;99.90;;;20.21;62.99;101115.22;4937181;29;20449;-64
2021/04/12 12:10:36;;;;;;;;;;;20.80;99.90;;;20.13;64.66;101105.94;4937234;29;19931;-64
2021/04/12 12:13:07;;;;;;;;;;;20.80;99.90;;;20.19;64.33;101101.81;4937400;29;20025;-64
2021/04/12 12:15:46;;;;;;;;;;;20.80;99.90;;;20.29;64.20;101101.38;4936122;29;19927;-64
2021/04/12 12:18:14;;;;;;;;;;;;;;;20.42;63.24;101091.16;4936823;29;19931;-64
2021/04/12 12:20:47;;;;;;;;;;;21.00;99.90;;;20.42;62.49;101091.16;4937144;29;20294;-64
2021/04/12 12:23:35;;;;;;;;;;;21.00;99.90;;;20.38;64.13;101091.03;4936657;29;20398;-64
2021/04/12 12:26:03;;;;;;;;;;;20.90;99.90;;;20.57;63.86;101101.38;4936578;29;19927;-64
2021/04/12 12:28:41;;;;;;;;;;;21.10;99.90;;;20.73;62.25;101096.75;4936600;29;19931;-64
2021/04/12 12:31:31;;;;;;;;;;;21.20;99.90;;;20.96;61.36;101091.44;4936939;29;19974;-64
2021/04/12 12:34:20;;;;;;;;;;;21.50;99.90;;;20.81;62.27;101092.22;4936091;29;19982;-63
2021/04/12 12:36:52;;;;;;;;;;;21.40;99.90;;;20.87;61.56;101071.56;4935448;29;19930;-64
2021/04/12 12:39:32;;;;;;;;;;;21.50;99.90;;;21.04;61.00;101072.03;4936734;29;20411;-64
2021/04/12 12:42:01;;;;;;;;;;;21.60;99.90;;;21.42;60.56;101085.19;4936826;29;19927;-64
2021/04/12 12:44:29;;;;;;;;;;;21.90;99.90;;;21.60;59.78;101072.66;4935892;29;19935;-64
2021/04/12 12:46:58;;;;;;;;;;;22.20;99.90;;;21.83;57.49;101072.78;4936287;29;19934;-64
2021/04/12 12:49:27;;;;;;;;;;;22.40;99.90;;;21.95;57.79;101082.91;4936106;29;19949;-64
2021/04/12 12:51:55;;;;;;;;;;;22.60;99.90;;;21.85;57.80;101075.19;4936436;29;19981;-64
2021/04/12 12:54:27;;;;;;;;;;;22.50;99.90;;;21.96;56.86;101087.25;4935288;29;19994;-64
2021/04/12 12:57:02;;;;;;;;;;;22.60;99.90;;;21.88;56.87;101085.47;4918144;29;19938;-63
2021/04/12 12:59:33;;;;;;;;;;;22.50;99.90;;;21.94;57.27;101089.56;4917333;29;19931;-64
2021/04/12 13:02:13;;;;;;;;;;;22.60;99.90;;;21.89;55.79;101074.13;4917442;29;19927;-64
2021/04/12 13:04:42;;;;;;;;;;;22.50;99.90;;;21.80;55.86;101082.56;4916156;29;20343;-64
2021/04/12 13:07:14;;;;;;;;;;;22.50;99.90;;;21.75;55.12;101079.28;4916720;29;19927;-64
2021/04/12 13:09:55;;;;;;;;;;;22.40;99.90;;;21.83;56.69;101078.28;4917240;29;19927;-64